sensor_id;sensor_type;location;lat;lon;timestamp;pressure;altitude;pressure_sealevel;temperature
13304;BMP280;6720;51.958;4.540;2023-07-31T00:02:02;100840.97;;;20.56
13304;BMP280;6720;51.958;4.540;2023-07-31T00:04:27;100837.41;;;20.42
13304;BMP280;6720;51.958;4.540;2023-07-31T00:06:53;100831.31;;;20.24
13304;BMP280;6720;51.958;4.540;2023-07-31T00:09:18;100835.28;;;20.33
13304;BMP280;6720;51.958;4.540;2023-07-31T00:11:44;100835.03;;;20.22
13304;BMP280;6720;51.958;4.540;2023-07-31T00:14:09;100848.41;;;20.20
13304;BMP280;6720;51.958;4.540;2023-07-31T00:16:34;100852.84;;;20.20
13304;BMP280;6720;51.958;4.540;2023-07-31T00:19:00;100834.38;;;20.01
13304;BMP280;6720;51.958;4.540;2023-07-31T00:21:25;100835.13;;;20.03
13304;BMP280;6720;51.958;4.540;2023-07-31T00:23:51;100833.59;;;19.99
13304;BMP280;6720;51.958;4.540;2023-07-31T00:26:16;100818.19;;;20.37
13304;BMP280;6720;51.958;4.540;2023-07-31T00:28:42;100813.72;;;20.37
13304;BMP280;6720;51.958;4.540;2023-07-31T00:31:07;100833.66;;;20.30
13304;BMP280;6720;51.958;4.540;2023-07-31T00:33:34;100824.63;;;20.33
13304;BMP280;6720;51.958;4.540;2023-07-31T00:36:00;100821.44;;;20.26
13304;BMP280;6720;51.958;4.540;2023-07-31T00:38:25;100819.56;;;20.28
13304;BMP280;6720;51.958;4.540;2023-07-31T00:40:51;100827.97;;;20.36
13304;BMP280;6720;51.958;4.540;2023-07-31T00:43:16;100838.41;;;20.08
13304;BMP280;6720;51.958;4.540;2023-07-31T00:45:42;100831.50;;;20.21
13304;BMP280;6720;51.958;4.540;2023-07-31T00:48:07;100831.25;;;20.26
13304;BMP280;6720;51.958;4.540;2023-07-31T00:50:33;100829.94;;;20.33
13304;BMP280;6720;51.958;4.540;2023-07-31T00:53:00;100830.31;;;20.11
13304;BMP280;6720;51.958;4.540;2023-07-31T00:55:25;100840.66;;;20.00
13304;BMP280;6720;51.958;4.540;2023-07-31T00:57:53;100823.44;;;20.23
13304;BMP280;6720;51.958;4.540;2023-07-31T01:00:21;100836.72;;;20.23
13304;BMP280;6720;51.958;4.540;2023-07-31T01:02:46;100837.94;;;20.17
13304;BMP280;6720;51.958;4.540;2023-07-31T01:05:13;100861.66;;;19.89
13304;BMP280;6720;51.958;4.540;2023-07-31T01:08:15;100861.66;;;19.89
13304;BMP280;6720;51.958;4.540;2023-07-31T01:10:58;100829.31;;;19.97
13304;BMP280;6720;51.958;4.540;2023-07-31T01:13:25;100818.69;;;19.97
13304;BMP280;6720;51.958;4.540;2023-07-31T01:15:51;100816.66;;;20.17
13304;BMP280;6720;51.958;4.540;2023-07-31T01:18:17;100821.94;;;20.02
13304;BMP280;6720;51.958;4.540;2023-07-31T01:20:42;100814.75;;;20.04
13304;BMP280;6720;51.958;4.540;2023-07-31T01:26:05;100815.94;;;19.98
13304;BMP280;6720;51.958;4.540;2023-07-31T01:28:47;100807.34;;;20.09
13304;BMP280;6720;51.958;4.540;2023-07-31T01:31:21;100808.75;;;20.16
13304;BMP280;6720;51.958;4.540;2023-07-31T01:33:49;100798.41;;;20.11
13304;BMP280;6720;51.958;4.540;2023-07-31T01:36:15;100797.25;;;20.31
13304;BMP280;6720;51.958;4.540;2023-07-31T01:38:41;100793.66;;;20.32
13304;BMP280;6720;51.958;4.540;2023-07-31T01:41:06;100806.47;;;20.10
13304;BMP280;6720;51.958;4.540;2023-07-31T01:43:31;100810.09;;;20.07
13304;BMP280;6720;51.958;4.540;2023-07-31T01:45:57;100794.69;;;20.29
13304;BMP280;6720;51.958;4.540;2023-07-31T01:48:22;100795.75;;;20.11
13304;BMP280;6720;51.958;4.540;2023-07-31T01:50:48;100786.28;;;20.37
13304;BMP280;6720;51.958;4.540;2023-07-31T01:53:13;100780.09;;;20.36
13304;BMP280;6720;51.958;4.540;2023-07-31T01:55:39;100764.50;;;20.30
13304;BMP280;6720;51.958;4.540;2023-07-31T01:58:04;100769.84;;;20.15
13304;BMP280;6720;51.958;4.540;2023-07-31T02:00:30;100755.75;;;20.28
13304;BMP280;6720;51.958;4.540;2023-07-31T02:02:55;100752.16;;;20.29
13304;BMP280;6720;51.958;4.540;2023-07-31T02:05:20;100747.69;;;20.30
13304;BMP280;6720;51.958;4.540;2023-07-31T02:07:46;100746.06;;;20.27
13304;BMP280;6720;51.958;4.540;2023-07-31T02:10:11;100742.53;;;20.27
13304;BMP280;6720;51.958;4.540;2023-07-31T02:12:37;100731.56;;;20.33
13304;BMP280;6720;51.958;4.540;2023-07-31T02:15:02;100742.22;;;20.17
13304;BMP280;6720;51.958;4.540;2023-07-31T02:17:28;100733.69;;;20.26
13304;BMP280;6720;51.958;4.540;2023-07-31T02:19:54;100739.69;;;20.45
13304;BMP280;6720;51.958;4.540;2023-07-31T02:22:20;100732.94;;;20.24
13304;BMP280;6720;51.958;4.540;2023-07-31T02:24:45;100742.69;;;20.39
13304;BMP280;6720;51.958;4.540;2023-07-31T02:27:11;100733.59;;;20.43
13304;BMP280;6720;51.958;4.540;2023-07-31T02:29:36;100731.50;;;20.48
13304;BMP280;6720;51.958;4.540;2023-07-31T02:32:02;100746.97;;;20.42
13304;BMP280;6720;51.958;4.540;2023-07-31T02:34:27;100733.72;;;20.56
13304;BMP280;6720;51.958;4.540;2023-07-31T02:36:53;100732.81;;;20.41
13304;BMP280;6720;51.958;4.540;2023-07-31T02:39:18;100719.88;;;20.35
13304;BMP280;6720;51.958;4.540;2023-07-31T02:41:43;100725.34;;;20.48
13304;BMP280;6720;51.958;4.540;2023-07-31T02:44:09;100743.81;;;20.35
13304;BMP280;6720;51.958;4.540;2023-07-31T02:46:35;100724.78;;;20.57
13304;BMP280;6720;51.958;4.540;2023-07-31T02:49:01;100738.72;;;20.46
13304;BMP280;6720;51.958;4.540;2023-07-31T02:51:26;100726.00;;;20.51
13304;BMP280;6720;51.958;4.540;2023-07-31T02:53:51;100725.13;;;20.37
13304;BMP280;6720;51.958;4.540;2023-07-31T02:56:17;100710.75;;;20.55
13304;BMP280;6720;51.958;4.540;2023-07-31T02:58:43;100717.50;;;20.60
13304;BMP280;6720;51.958;4.540;2023-07-31T03:01:08;100706.38;;;20.24
13304;BMP280;6720;51.958;4.540;2023-07-31T03:03:33;100692.25;;;20.38
13304;BMP280;6720;51.958;4.540;2023-07-31T03:05:59;100703.81;;;20.66
13304;BMP280;6720;51.958;4.540;2023-07-31T03:08:24;100695.69;;;20.40
13304;BMP280;6720;51.958;4.540;2023-07-31T03:10:50;100683.63;;;20.48
13304;BMP280;6720;51.958;4.540;2023-07-31T03:13:15;100691.59;;;20.48
13304;BMP280;6720;51.958;4.540;2023-07-31T03:15:43;100692.22;;;20.81
13304;BMP280;6720;51.958;4.540;2023-07-31T03:18:09;100692.06;;;20.84
13304;BMP280;6720;51.958;4.540;2023-07-31T03:20:35;100693.16;;;20.66
13304;BMP280;6720;51.958;4.540;2023-07-31T03:23:00;100682.09;;;20.44
13304;BMP280;6720;51.958;4.540;2023-07-31T03:25:26;100681.22;;;20.87
13304;BMP280;6720;51.958;4.540;2023-07-31T03:27:51;100678.53;;;20.73
13304;BMP280;6720;51.958;4.540;2023-07-31T03:30:16;100694.72;;;20.84
13304;BMP280;6720;51.958;4.540;2023-07-31T03:32:42;100681.47;;;20.69
13304;BMP280;6720;51.958;4.540;2023-07-31T03:35:07;100678.72;;;20.70
13304;BMP280;6720;51.958;4.540;2023-07-31T03:37:33;100680.63;;;20.54
13304;BMP280;6720;51.958;4.540;2023-07-31T03:39:58;100688.88;;;20.64
13304;BMP280;6720;51.958;4.540;2023-07-31T03:42:24;100683.31;;;20.25
13304;BMP280;6720;51.958;4.540;2023-07-31T03:44:49;100672.25;;;20.01
13304;BMP280;6720;51.958;4.540;2023-07-31T03:47:15;100667.31;;;20.11
13304;BMP280;6720;51.958;4.540;2023-07-31T03:49:40;100667.91;;;20.00
13304;BMP280;6720;51.958;4.540;2023-07-31T03:52:06;100657.22;;;19.86
13304;BMP280;6720;51.958;4.540;2023-07-31T03:54:31;100657.91;;;19.74
13304;BMP280;6720;51.958;4.540;2023-07-31T03:56:57;100649.53;;;19.66
13304;BMP280;6720;51.958;4.540;2023-07-31T03:59:22;100644.22;;;19.66
13304;BMP280;6720;51.958;4.540;2023-07-31T04:01:48;100646.88;;;19.66
13304;BMP280;6720;51.958;4.540;2023-07-31T04:04:13;100642.31;;;19.84
13304;BMP280;6720;51.958;4.540;2023-07-31T04:06:38;100652.88;;;19.54
13304;BMP280;6720;51.958;4.540;2023-07-31T04:09:04;100646.03;;;19.50
13304;BMP280;6720;51.958;4.540;2023-07-31T04:11:29;100636.25;;;19.66
13304;BMP280;6720;51.958;4.540;2023-07-31T04:13:55;100636.75;;;19.57
13304;BMP280;6720;51.958;4.540;2023-07-31T04:16:20;100639.44;;;19.26
13304;BMP280;6720;51.958;4.540;2023-07-31T04:18:45;100634.59;;;19.64
13304;BMP280;6720;51.958;4.540;2023-07-31T04:21:11;100623.72;;;19.68
13304;BMP280;6720;51.958;4.540;2023-07-31T04:23:36;100625.19;;;19.58
13304;BMP280;6720;51.958;4.540;2023-07-31T04:26:02;100627.75;;;19.75
13304;BMP280;6720;51.958;4.540;2023-07-31T04:28:27;100620.53;;;19.77
13304;BMP280;6720;51.958;4.540;2023-07-31T04:30:53;100625.63;;;19.66
13304;BMP280;6720;51.958;4.540;2023-07-31T04:33:18;100617.09;;;19.46
13304;BMP280;6720;51.958;4.540;2023-07-31T04:35:51;100622.66;;;19.41
13304;BMP280;6720;51.958;4.540;2023-07-31T04:38:20;100623.81;;;19.67
13304;BMP280;6720;51.958;4.540;2023-07-31T04:40:46;100611.16;;;19.72
13304;BMP280;6720;51.958;4.540;2023-07-31T04:43:12;100610.66;;;19.50
13304;BMP280;6720;51.958;4.540;2023-07-31T04:45:38;100603.19;;;19.56
13304;BMP280;6720;51.958;4.540;2023-07-31T04:48:03;100609.28;;;19.27
13304;BMP280;6720;51.958;4.540;2023-07-31T04:50:29;100606.44;;;19.61
13304;BMP280;6720;51.958;4.540;2023-07-31T04:52:56;100602.00;;;19.46
13304;BMP280;6720;51.958;4.540;2023-07-31T04:55:21;100610.31;;;19.40
13304;BMP280;6720;51.958;4.540;2023-07-31T04:57:46;100598.84;;;19.40
13304;BMP280;6720;51.958;4.540;2023-07-31T05:00:12;100608.44;;;19.42
13304;BMP280;6720;51.958;4.540;2023-07-31T05:02:37;100602.41;;;19.54
13304;BMP280;6720;51.958;4.540;2023-07-31T05:05:03;100588.25;;;19.69
13304;BMP280;6720;51.958;4.540;2023-07-31T05:07:28;100592.81;;;19.67
13304;BMP280;6720;51.958;4.540;2023-07-31T05:09:54;100599.50;;;19.43
13304;BMP280;6720;51.958;4.540;2023-07-31T05:12:19;100591.91;;;19.37
13304;BMP280;6720;51.958;4.540;2023-07-31T05:14:45;100583.00;;;19.68
13304;BMP280;6720;51.958;4.540;2023-07-31T05:17:10;100587.81;;;19.47
13304;BMP280;6720;51.958;4.540;2023-07-31T05:19:36;100581.13;;;19.40
13304;BMP280;6720;51.958;4.540;2023-07-31T05:22:01;100586.78;;;19.34
13304;BMP280;6720;51.958;4.540;2023-07-31T05:24:26;100572.78;;;19.46
13304;BMP280;6720;51.958;4.540;2023-07-31T05:26:52;100579.63;;;19.19
13304;BMP280;6720;51.958;4.540;2023-07-31T05:29:17;100570.03;;;19.48
13304;BMP280;6720;51.958;4.540;2023-07-31T05:31:43;100572.22;;;19.41
13304;BMP280;6720;51.958;4.540;2023-07-31T05:34:08;100562.16;;;19.46
13304;BMP280;6720;51.958;4.540;2023-07-31T05:36:33;100561.91;;;19.51
13304;BMP280;6720;51.958;4.540;2023-07-31T05:38:59;100567.88;;;19.54
13304;BMP280;6720;51.958;4.540;2023-07-31T05:41:24;100564.75;;;19.48
13304;BMP280;6720;51.958;4.540;2023-07-31T05:43:50;100558.94;;;19.41
13304;BMP280;6720;51.958;4.540;2023-07-31T05:46:16;100552.72;;;19.72
13304;BMP280;6720;51.958;4.540;2023-07-31T05:48:42;100557.19;;;19.56
13304;BMP280;6720;51.958;4.540;2023-07-31T05:51:07;100549.75;;;19.76
13304;BMP280;6720;51.958;4.540;2023-07-31T05:53:32;100549.69;;;19.62
13304;BMP280;6720;51.958;4.540;2023-07-31T05:55:58;100548.59;;;19.66
13304;BMP280;6720;51.958;4.540;2023-07-31T05:58:23;100542.78;;;19.89
13304;BMP280;6720;51.958;4.540;2023-07-31T06:00:49;100541.78;;;19.47
13304;BMP280;6720;51.958;4.540;2023-07-31T06:03:14;100536.28;;;19.79
13304;BMP280;6720;51.958;4.540;2023-07-31T06:05:40;100543.28;;;19.66
13304;BMP280;6720;51.958;4.540;2023-07-31T06:08:05;100541.56;;;19.65
13304;BMP280;6720;51.958;4.540;2023-07-31T06:10:31;100537.03;;;19.67
13304;BMP280;6720;51.958;4.540;2023-07-31T06:12:56;100543.47;;;19.63
13304;BMP280;6720;51.958;4.540;2023-07-31T06:15:22;100535.16;;;19.83
13304;BMP280;6720;51.958;4.540;2023-07-31T06:17:47;100546.16;;;19.77
13304;BMP280;6720;51.958;4.540;2023-07-31T06:20:13;100534.00;;;19.73
13304;BMP280;6720;51.958;4.540;2023-07-31T06:22:38;100537.09;;;19.81
13304;BMP280;6720;51.958;4.540;2023-07-31T06:25:04;100531.56;;;19.84
13304;BMP280;6720;51.958;4.540;2023-07-31T06:27:29;100524.19;;;19.89
13304;BMP280;6720;51.958;4.540;2023-07-31T06:29:55;100523.91;;;20.08
13304;BMP280;6720;51.958;4.540;2023-07-31T06:32:20;100519.16;;;19.99
13304;BMP280;6720;51.958;4.540;2023-07-31T06:34:46;100522.22;;;20.07
13304;BMP280;6720;51.958;4.540;2023-07-31T06:37:11;100523.56;;;19.70
13304;BMP280;6720;51.958;4.540;2023-07-31T06:39:37;100521.53;;;19.89
13304;BMP280;6720;51.958;4.540;2023-07-31T06:42:03;100508.25;;;20.03
13304;BMP280;6720;51.958;4.540;2023-07-31T06:44:28;100513.44;;;19.77
13304;BMP280;6720;51.958;4.540;2023-07-31T06:46:53;100505.50;;;19.91
13304;BMP280;6720;51.958;4.540;2023-07-31T06:49:19;100498.47;;;20.04
13304;BMP280;6720;51.958;4.540;2023-07-31T06:51:44;100505.44;;;20.20
13304;BMP280;6720;51.958;4.540;2023-07-31T06:54:10;100498.13;;;20.24
13304;BMP280;6720;51.958;4.540;2023-07-31T06:56:35;100501.75;;;20.23
13304;BMP280;6720;51.958;4.540;2023-07-31T06:59:01;100496.59;;;20.06
13304;BMP280;6720;51.958;4.540;2023-07-31T07:01:26;100502.81;;;19.77
13304;BMP280;6720;51.958;4.540;2023-07-31T07:03:53;100494.31;;;20.00
13304;BMP280;6720;51.958;4.540;2023-07-31T07:06:19;100500.28;;;20.03
13304;BMP280;6720;51.958;4.540;2023-07-31T07:08:44;100503.53;;;20.36
13304;BMP280;6720;51.958;4.540;2023-07-31T07:11:10;100508.88;;;20.36
13304;BMP280;6720;51.958;4.540;2023-07-31T07:13:35;100503.09;;;20.44
13304;BMP280;6720;51.958;4.540;2023-07-31T07:16:01;100510.59;;;19.80
13304;BMP280;6720;51.958;4.540;2023-07-31T07:18:26;100507.53;;;20.43
13304;BMP280;6720;51.958;4.540;2023-07-31T07:20:53;100507.56;;;20.15
13304;BMP280;6720;51.958;4.540;2023-07-31T07:23:20;100507.75;;;20.12
13304;BMP280;6720;51.958;4.540;2023-07-31T07:25:46;100502.97;;;20.17
13304;BMP280;6720;51.958;4.540;2023-07-31T07:28:12;100494.06;;;20.32
13304;BMP280;6720;51.958;4.540;2023-07-31T07:30:38;100501.84;;;20.35
13304;BMP280;6720;51.958;4.540;2023-07-31T07:33:03;100495.16;;;20.56
13304;BMP280;6720;51.958;4.540;2023-07-31T07:35:29;100491.22;;;20.35
13304;BMP280;6720;51.958;4.540;2023-07-31T07:37:54;100501.75;;;20.51
13304;BMP280;6720;51.958;4.540;2023-07-31T07:40:20;100501.63;;;20.52
13304;BMP280;6720;51.958;4.540;2023-07-31T07:42:46;100510.00;;;20.46
13304;BMP280;6720;51.958;4.540;2023-07-31T07:45:12;100496.91;;;20.29
13304;BMP280;6720;51.958;4.540;2023-07-31T07:47:40;100497.56;;;20.47
13304;BMP280;6720;51.958;4.540;2023-07-31T07:50:06;100502.41;;;20.54
13304;BMP280;6720;51.958;4.540;2023-07-31T07:52:31;100489.28;;;20.51
13304;BMP280;6720;51.958;4.540;2023-07-31T07:54:57;100493.34;;;20.71
13304;BMP280;6720;51.958;4.540;2023-07-31T07:57:22;100493.81;;;20.77
13304;BMP280;6720;51.958;4.540;2023-07-31T07:59:48;100505.78;;;20.70
13304;BMP280;6720;51.958;4.540;2023-07-31T08:02:13;100490.25;;;20.50
13304;BMP280;6720;51.958;4.540;2023-07-31T08:04:38;100486.44;;;20.54
13304;BMP280;6720;51.958;4.540;2023-07-31T08:07:04;100492.50;;;20.70
13304;BMP280;6720;51.958;4.540;2023-07-31T08:09:29;100486.53;;;20.39
13304;BMP280;6720;51.958;4.540;2023-07-31T08:11:55;100490.44;;;20.47
13304;BMP280;6720;51.958;4.540;2023-07-31T08:14:22;100481.59;;;20.47
13304;BMP280;6720;51.958;4.540;2023-07-31T08:16:48;100486.84;;;20.34
13304;BMP280;6720;51.958;4.540;2023-07-31T08:19:13;100477.78;;;20.65
13304;BMP280;6720;51.958;4.540;2023-07-31T08:21:39;100488.16;;;20.41
13304;BMP280;6720;51.958;4.540;2023-07-31T08:24:04;100485.03;;;20.49
13304;BMP280;6720;51.958;4.540;2023-07-31T08:26:30;100483.41;;;20.60
13304;BMP280;6720;51.958;4.540;2023-07-31T08:28:55;100491.38;;;20.60
13304;BMP280;6720;51.958;4.540;2023-07-31T08:31:20;100482.56;;;20.46
13304;BMP280;6720;51.958;4.540;2023-07-31T08:33:46;100480.69;;;20.74
13304;BMP280;6720;51.958;4.540;2023-07-31T08:36:11;100489.38;;;20.90
13304;BMP280;6720;51.958;4.540;2023-07-31T08:38:37;100480.78;;;20.73
13304;BMP280;6720;51.958;4.540;2023-07-31T08:41:03;100472.00;;;20.58
13304;BMP280;6720;51.958;4.540;2023-07-31T08:43:30;100474.44;;;20.75
13304;BMP280;6720;51.958;4.540;2023-07-31T08:45:56;100469.13;;;20.75
13304;BMP280;6720;51.958;4.540;2023-07-31T08:48:23;100482.03;;;20.67
13304;BMP280;6720;51.958;4.540;2023-07-31T08:50:49;100477.41;;;20.71
13304;BMP280;6720;51.958;4.540;2023-07-31T08:53:15;100466.16;;;20.66
13304;BMP280;6720;51.958;4.540;2023-07-31T08:55:42;100477.97;;;20.62
13304;BMP280;6720;51.958;4.540;2023-07-31T08:58:08;100483.06;;;20.93
13304;BMP280;6720;51.958;4.540;2023-07-31T09:00:33;100475.81;;;20.95
13304;BMP280;6720;51.958;4.540;2023-07-31T09:03:02;100484.06;;;21.04
13304;BMP280;6720;51.958;4.540;2023-07-31T09:05:29;100484.50;;;20.70
13304;BMP280;6720;51.958;4.540;2023-07-31T09:07:56;100482.22;;;20.92
13304;BMP280;6720;51.958;4.540;2023-07-31T09:10:22;100480.59;;;21.16
13304;BMP280;6720;51.958;4.540;2023-07-31T09:12:49;100480.44;;;21.05
13304;BMP280;6720;51.958;4.540;2023-07-31T09:15:14;100481.47;;;20.76
13304;BMP280;6720;51.958;4.540;2023-07-31T09:17:40;100474.88;;;21.22
13304;BMP280;6720;51.958;4.540;2023-07-31T09:20:16;100474.25;;;21.19
13304;BMP280;6720;51.958;4.540;2023-07-31T09:22:43;100467.84;;;21.21
13304;BMP280;6720;51.958;4.540;2023-07-31T09:25:23;100463.34;;;21.22
13304;BMP280;6720;51.958;4.540;2023-07-31T09:28:00;100459.53;;;21.13
13304;BMP280;6720;51.958;4.540;2023-07-31T09:30:26;100473.22;;;21.07
13304;BMP280;6720;51.958;4.540;2023-07-31T09:33:00;100470.38;;;21.10
13304;BMP280;6720;51.958;4.540;2023-07-31T09:35:33;100466.41;;;21.42
13304;BMP280;6720;51.958;4.540;2023-07-31T09:38:00;100458.75;;;21.50
13304;BMP280;6720;51.958;4.540;2023-07-31T09:40:39;100458.91;;;21.22
13304;BMP280;6720;51.958;4.540;2023-07-31T09:43:09;100455.75;;;21.42
13304;BMP280;6720;51.958;4.540;2023-07-31T09:45:40;100452.84;;;21.33
13304;BMP280;6720;51.958;4.540;2023-07-31T09:48:10;100450.16;;;21.20
13304;BMP280;6720;51.958;4.540;2023-07-31T09:50:37;100458.06;;;21.34
13304;BMP280;6720;51.958;4.540;2023-07-31T09:53:04;100459.78;;;21.35
13304;BMP280;6720;51.958;4.540;2023-07-31T09:55:30;100452.94;;;21.19
13304;BMP280;6720;51.958;4.540;2023-07-31T09:57:57;100457.59;;;21.15
13304;BMP280;6720;51.958;4.540;2023-07-31T10:00:23;100453.66;;;21.21
13304;BMP280;6720;51.958;4.540;2023-07-31T10:02:50;100457.25;;;21.46
13304;BMP280;6720;51.958;4.540;2023-07-31T10:05:16;100464.53;;;21.70
13304;BMP280;6720;51.958;4.540;2023-07-31T10:07:45;100459.19;;;21.57
13304;BMP280;6720;51.958;4.540;2023-07-31T10:10:15;100447.44;;;21.74
13304;BMP280;6720;51.958;4.540;2023-07-31T10:12:41;100442.03;;;21.61
13304;BMP280;6720;51.958;4.540;2023-07-31T10:15:09;100447.75;;;21.42
13304;BMP280;6720;51.958;4.540;2023-07-31T10:17:35;100457.69;;;21.53
13304;BMP280;6720;51.958;4.540;2023-07-31T10:20:02;100453.69;;;21.73
13304;BMP280;6720;51.958;4.540;2023-07-31T10:22:30;100453.69;;;21.85
13304;BMP280;6720;51.958;4.540;2023-07-31T10:24:58;100447.97;;;21.91
13304;BMP280;6720;51.958;4.540;2023-07-31T10:27:25;100457.50;;;21.69
13304;BMP280;6720;51.958;4.540;2023-07-31T10:29:52;100468.78;;;21.60
13304;BMP280;6720;51.958;4.540;2023-07-31T10:32:19;100463.03;;;21.66
13304;BMP280;6720;51.958;4.540;2023-07-31T10:34:45;100462.13;;;21.92
13304;BMP280;6720;51.958;4.540;2023-07-31T10:37:35;100462.13;;;21.92
13304;BMP280;6720;51.958;4.540;2023-07-31T10:42:32;100445.59;;;21.87
13304;BMP280;6720;51.958;4.540;2023-07-31T10:45:00;100451.25;;;21.95
13304;BMP280;6720;51.958;4.540;2023-07-31T10:47:26;100435.16;;;22.09
13304;BMP280;6720;51.958;4.540;2023-07-31T10:49:51;100437.72;;;22.10
13304;BMP280;6720;51.958;4.540;2023-07-31T10:52:21;100448.59;;;22.20
13304;BMP280;6720;51.958;4.540;2023-07-31T10:57:49;100452.84;;;22.10
13304;BMP280;6720;51.958;4.540;2023-07-31T11:00:24;100460.94;;;21.96
13304;BMP280;6720;51.958;4.540;2023-07-31T11:03:09;100435.78;;;22.00
13304;BMP280;6720;51.958;4.540;2023-07-31T11:06:00;100435.78;;;22.00
13304;BMP280;6720;51.958;4.540;2023-07-31T11:08:36;100426.28;;;22.08
13304;BMP280;6720;51.958;4.540;2023-07-31T11:11:08;100418.50;;;22.18
13304;BMP280;6720;51.958;4.540;2023-07-31T11:13:40;100444.84;;;21.85
13304;BMP280;6720;51.958;4.540;2023-07-31T11:16:06;100415.88;;;21.93
13304;BMP280;6720;51.958;4.540;2023-07-31T11:18:31;100422.38;;;21.89
13304;BMP280;6720;51.958;4.540;2023-07-31T11:20:57;100425.13;;;22.00
13304;BMP280;6720;51.958;4.540;2023-07-31T11:23:23;100422.03;;;22.06
13304;BMP280;6720;51.958;4.540;2023-07-31T11:25:49;100422.03;;;22.06
13304;BMP280;6720;51.958;4.540;2023-07-31T11:28:16;100412.75;;;21.99
13304;BMP280;6720;51.958;4.540;2023-07-31T11:30:42;100417.31;;;22.22
13304;BMP280;6720;51.958;4.540;2023-07-31T11:33:10;100401.59;;;22.30
13304;BMP280;6720;51.958;4.540;2023-07-31T11:35:43;100419.88;;;22.11
13304;BMP280;6720;51.958;4.540;2023-07-31T11:38:11;100408.28;;;22.12
13304;BMP280;6720;51.958;4.540;2023-07-31T11:40:43;100414.63;;;22.22
13304;BMP280;6720;51.958;4.540;2023-07-31T11:43:09;100414.84;;;22.19
13304;BMP280;6720;51.958;4.540;2023-07-31T11:45:37;100415.97;;;22.04
13304;BMP280;6720;51.958;4.540;2023-07-31T11:48:03;100426.75;;;22.02
13304;BMP280;6720;51.958;4.540;2023-07-31T11:50:33;100424.88;;;22.28
13304;BMP280;6720;51.958;4.540;2023-07-31T11:53:00;100435.16;;;21.96
13304;BMP280;6720;51.958;4.540;2023-07-31T11:55:26;100444.94;;;22.21
13304;BMP280;6720;51.958;4.540;2023-07-31T11:57:55;100440.47;;;22.09
13304;BMP280;6720;51.958;4.540;2023-07-31T12:00:21;100417.50;;;22.19
13304;BMP280;6720;51.958;4.540;2023-07-31T12:02:47;100418.59;;;22.16
13304;BMP280;6720;51.958;4.540;2023-07-31T12:05:13;100409.50;;;22.19
13304;BMP280;6720;51.958;4.540;2023-07-31T12:07:54;100416.69;;;22.67
13304;BMP280;6720;51.958;4.540;2023-07-31T12:13:09;100405.09;;;22.43
13304;BMP280;6720;51.958;4.540;2023-07-31T12:15:42;100395.69;;;22.62
13304;BMP280;6720;51.958;4.540;2023-07-31T12:18:15;100403.53;;;22.53
13304;BMP280;6720;51.958;4.540;2023-07-31T12:20:42;100394.44;;;22.43
13304;BMP280;6720;51.958;4.540;2023-07-31T12:23:22;100401.09;;;22.25
13304;BMP280;6720;51.958;4.540;2023-07-31T12:26:13;100387.34;;;22.18
13304;BMP280;6720;51.958;4.540;2023-07-31T12:28:49;100394.03;;;22.36
13304;BMP280;6720;51.958;4.540;2023-07-31T12:31:16;100395.84;;;22.48
13304;BMP280;6720;51.958;4.540;2023-07-31T12:33:46;100388.63;;;22.25
13304;BMP280;6720;51.958;4.540;2023-07-31T12:36:16;100386.00;;;22.49
13304;BMP280;6720;51.958;4.540;2023-07-31T12:38:42;100383.22;;;22.02
13304;BMP280;6720;51.958;4.540;2023-07-31T12:41:08;100366.94;;;22.30
13304;BMP280;6720;51.958;4.540;2023-07-31T12:43:34;100351.75;;;22.55
13304;BMP280;6720;51.958;4.540;2023-07-31T12:46:00;100362.16;;;22.82
13304;BMP280;6720;51.958;4.540;2023-07-31T12:48:25;100375.66;;;22.57
13304;BMP280;6720;51.958;4.540;2023-07-31T12:50:51;100362.84;;;22.37
13304;BMP280;6720;51.958;4.540;2023-07-31T12:53:16;100377.38;;;22.33
13304;BMP280;6720;51.958;4.540;2023-07-31T12:55:42;100374.00;;;22.31
13304;BMP280;6720;51.958;4.540;2023-07-31T12:58:07;100376.63;;;22.43
13304;BMP280;6720;51.958;4.540;2023-07-31T13:00:33;100371.16;;;22.45
13304;BMP280;6720;51.958;4.540;2023-07-31T13:02:59;100365.53;;;22.01
13304;BMP280;6720;51.958;4.540;2023-07-31T13:05:25;100367.13;;;22.03
13304;BMP280;6720;51.958;4.540;2023-07-31T13:07:51;100350.22;;;22.15
13304;BMP280;6720;51.958;4.540;2023-07-31T13:10:17;100337.72;;;22.64
13304;BMP280;6720;51.958;4.540;2023-07-31T13:12:43;100335.47;;;22.82
13304;BMP280;6720;51.958;4.540;2023-07-31T13:15:08;100346.28;;;22.57
13304;BMP280;6720;51.958;4.540;2023-07-31T13:17:35;100330.34;;;22.68
13304;BMP280;6720;51.958;4.540;2023-07-31T13:20:00;100343.22;;;22.74
13304;BMP280;6720;51.958;4.540;2023-07-31T13:22:26;100344.47;;;22.81
13304;BMP280;6720;51.958;4.540;2023-07-31T13:24:51;100343.47;;;22.82
13304;BMP280;6720;51.958;4.540;2023-07-31T13:27:17;100333.00;;;22.32
13304;BMP280;6720;51.958;4.540;2023-07-31T13:29:45;100339.94;;;22.34
13304;BMP280;6720;51.958;4.540;2023-07-31T13:32:10;100344.19;;;22.37
13304;BMP280;6720;51.958;4.540;2023-07-31T13:34:36;100333.81;;;22.45
13304;BMP280;6720;51.958;4.540;2023-07-31T13:37:02;100342.63;;;21.98
13304;BMP280;6720;51.958;4.540;2023-07-31T13:39:28;100336.97;;;22.26
13304;BMP280;6720;51.958;4.540;2023-07-31T13:41:53;100347.53;;;22.28
13304;BMP280;6720;51.958;4.540;2023-07-31T13:44:19;100322.31;;;22.08
13304;BMP280;6720;51.958;4.540;2023-07-31T13:46:44;100319.09;;;22.16
13304;BMP280;6720;51.958;4.540;2023-07-31T13:49:09;100324.41;;;22.28
13304;BMP280;6720;51.958;4.540;2023-07-31T13:51:35;100332.31;;;22.41
13304;BMP280;6720;51.958;4.540;2023-07-31T13:54:01;100335.16;;;22.63
13304;BMP280;6720;51.958;4.540;2023-07-31T13:56:26;100327.19;;;22.50
13304;BMP280;6720;51.958;4.540;2023-07-31T13:58:52;100319.69;;;22.32
13304;BMP280;6720;51.958;4.540;2023-07-31T14:01:17;100318.13;;;22.53
13304;BMP280;6720;51.958;4.540;2023-07-31T14:03:42;100310.53;;;22.47
13304;BMP280;6720;51.958;4.540;2023-07-31T14:06:08;100319.66;;;21.96
13304;BMP280;6720;51.958;4.540;2023-07-31T14:08:33;100303.53;;;22.10
13304;BMP280;6720;51.958;4.540;2023-07-31T14:10:59;100305.31;;;22.45
13304;BMP280;6720;51.958;4.540;2023-07-31T14:13:24;100291.38;;;22.42
13304;BMP280;6720;51.958;4.540;2023-07-31T14:15:50;100288.16;;;22.37
13304;BMP280;6720;51.958;4.540;2023-07-31T14:18:15;100295.97;;;22.40